sensor_id;sensor_type;location;lat;lon;timestamp;pressure;altitude;pressure_sealevel;temperature;humidity
73284;BME280;61519;60.050;18.582;2024-03-02T00:00:06;101410.75;;;5.91;70.64
73284;BME280;61519;60.050;18.582;2024-03-02T00:02:43;101404.13;;;5.87;70.65
73284;BME280;61519;60.050;18.582;2024-03-02T00:05:17;101417.97;;;5.99;70.63
73284;BME280;61519;60.050;18.582;2024-03-02T00:07:44;101433.25;;;6.03;70.55
73284;BME280;61519;60.050;18.582;2024-03-02T00:10:14;101431.75;;;6.01;70.73
73284;BME280;61519;60.050;18.582;2024-03-02T00:12:41;101426.38;;;6.02;70.66
73284;BME280;61519;60.050;18.582;2024-03-02T00:15:48;101427.78;;;6.06;70.79
73284;BME280;61519;60.050;18.582;2024-03-02T00:18:23;101420.63;;;6.08;70.77
73284;BME280;61519;60.050;18.582;2024-03-02T00:20:52;101425.56;;;6.11;70.65
73284;BME280;61519;60.050;18.582;2024-03-02T00:23:18;101397.97;;;5.98;70.54
73284;BME280;61519;60.050;18.582;2024-03-02T00:25:47;101414.72;;;6.16;70.55
73284;BME280;61519;60.050;18.582;2024-03-02T00:33:10;101395.13;;;6.10;70.54
73284;BME280;61519;60.050;18.582;2024-03-02T00:35:35;101412.66;;;6.19;70.15
73284;BME280;61519;60.050;18.582;2024-03-02T00:38:06;101419.97;;;6.26;70.47
73284;BME280;61519;60.050;18.582;2024-03-02T00:40:32;101418.75;;;6.30;70.52
73284;BME280;61519;60.050;18.582;2024-03-02T00:42:58;101419.72;;;6.29;70.59
73284;BME280;61519;60.050;18.582;2024-03-02T00:45:25;101399.44;;;6.21;70.64
73284;BME280;61519;60.050;18.582;2024-03-02T00:47:51;101388.38;;;6.17;70.52
73284;BME280;61519;60.050;18.582;2024-03-02T00:50:17;101420.84;;;6.36;70.40
73284;BME280;61519;60.050;18.582;2024-03-02T00:52:42;101411.97;;;6.27;70.21
73284;BME280;61519;60.050;18.582;2024-03-02T00:55:08;101416.03;;;6.41;70.49
73284;BME280;61519;60.050;18.582;2024-03-02T00:57:34;101421.00;;;6.44;70.47
73284;BME280;61519;60.050;18.582;2024-03-02T01:00:00;101415.06;;;6.42;70.48
73284;BME280;61519;60.050;18.582;2024-03-02T01:02:26;101414.13;;;6.43;70.39
73284;BME280;61519;60.050;18.582;2024-03-02T01:04:52;101398.50;;;6.32;70.34
73284;BME280;61519;60.050;18.582;2024-03-02T01:07:17;101412.44;;;6.42;70.50
73284;BME280;61519;60.050;18.582;2024-03-02T01:09:42;101413.56;;;6.49;70.48
73284;BME280;61519;60.050;18.582;2024-03-02T01:12:08;101429.41;;;6.47;70.65
73284;BME280;61519;60.050;18.582;2024-03-02T01:14:33;101429.03;;;6.52;70.53
73284;BME280;61519;60.050;18.582;2024-03-02T01:17:00;101412.44;;;6.42;70.53
73284;BME280;61519;60.050;18.582;2024-03-02T01:19:28;101426.66;;;6.49;70.39
73284;BME280;61519;60.050;18.582;2024-03-02T01:21:54;101408.72;;;6.44;70.59
73284;BME280;61519;60.050;18.582;2024-03-02T01:24:19;101432.06;;;6.57;70.55
73284;BME280;61519;60.050;18.582;2024-03-02T01:26:44;101420.19;;;6.53;70.46
73284;BME280;61519;60.050;18.582;2024-03-02T01:29:10;101413.84;;;6.46;70.38
73284;BME280;61519;60.050;18.582;2024-03-02T01:31:35;101400.31;;;6.41;70.45
73284;BME280;61519;60.050;18.582;2024-03-02T01:34:00;101400.31;;;6.41;70.53
73284;BME280;61519;60.050;18.582;2024-03-02T01:36:26;101408.31;;;6.49;70.34
73284;BME280;61519;60.050;18.582;2024-03-02T01:38:51;101442.97;;;6.62;70.41
73284;BME280;61519;60.050;18.582;2024-03-02T01:41:16;101411.22;;;6.46;70.48
73284;BME280;61519;60.050;18.582;2024-03-02T01:43:42;101399.63;;;6.39;70.63
73284;BME280;61519;60.050;18.582;2024-03-02T01:46:07;101411.91;;;6.48;70.22
73284;BME280;61519;60.050;18.582;2024-03-02T01:48:32;101403.50;;;6.44;70.47
73284;BME280;61519;60.050;18.582;2024-03-02T01:50:59;101409.16;;;6.49;70.31
73284;BME280;61519;60.050;18.582;2024-03-02T01:53:24;101402.13;;;6.50;70.37
73284;BME280;61519;60.050;18.582;2024-03-02T01:55:50;101417.84;;;6.50;70.52
73284;BME280;61519;60.050;18.582;2024-03-02T01:58:16;101427.25;;;6.62;70.69
73284;BME280;61519;60.050;18.582;2024-03-02T02:00:41;101428.63;;;6.66;70.38
73284;BME280;61519;60.050;18.582;2024-03-02T02:03:07;101393.16;;;6.43;70.39
73284;BME280;61519;60.050;18.582;2024-03-02T02:05:33;101382.34;;;6.27;70.18
73284;BME280;61519;60.050;18.582;2024-03-02T02:08:01;101410.22;;;6.47;70.39
73284;BME280;61519;60.050;18.582;2024-03-02T02:10:26;101422.09;;;6.51;70.34
73284;BME280;61519;60.050;18.582;2024-03-02T02:12:52;101411.22;;;6.46;70.00
73284;BME280;61519;60.050;18.582;2024-03-02T02:15:30;101445.19;;;6.66;70.34
73284;BME280;61519;60.050;18.582;2024-03-02T02:17:57;101418.38;;;6.44;70.21
73284;BME280;61519;60.050;18.582;2024-03-02T02:20:23;101425.25;;;6.45;70.37
73284;BME280;61519;60.050;18.582;2024-03-02T02:23:02;101451.53;;;6.64;70.37
73284;BME280;61519;60.050;18.582;2024-03-02T02:25:28;101433.28;;;6.53;70.24
73284;BME280;61519;60.050;18.582;2024-03-02T02:27:55;101456.78;;;6.64;70.27
73284;BME280;61519;60.050;18.582;2024-03-02T02:32:50;101432.19;;;6.46;70.51
73284;BME280;61519;60.050;18.582;2024-03-02T02:35:16;101371.41;;;6.12;70.23
73284;BME280;61519;60.050;18.582;2024-03-02T02:37:42;101428.84;;;6.44;70.37
73284;BME280;61519;60.050;18.582;2024-03-02T02:40:08;101403.47;;;6.35;70.30
73284;BME280;61519;60.050;18.582;2024-03-02T02:42:34;101388.00;;;6.32;70.18
73284;BME280;61519;60.050;18.582;2024-03-02T02:44:59;101375.44;;;6.26;70.18
73284;BME280;61519;60.050;18.582;2024-03-02T02:47:25;101403.19;;;6.38;69.91
73284;BME280;61519;60.050;18.582;2024-03-02T02:49:51;101397.94;;;6.38;69.95
73284;BME280;61519;60.050;18.582;2024-03-02T02:52:16;101375.56;;;6.14;70.18
73284;BME280;61519;60.050;18.582;2024-03-02T02:54:43;101402.47;;;6.26;70.02
73284;BME280;61519;60.050;18.582;2024-03-02T02:57:08;101436.44;;;6.47;70.05
73284;BME280;61519;60.050;18.582;2024-03-02T02:59:35;101436.44;;;6.47;70.06
73284;BME280;61519;60.050;18.582;2024-03-02T03:02:01;101460.88;;;6.57;70.20
73284;BME280;61519;60.050;18.582;2024-03-02T03:04:26;101460.34;;;6.63;70.08
73284;BME280;61519;60.050;18.582;2024-03-02T03:06:51;101405.94;;;6.27;70.27
73284;BME280;61519;60.050;18.582;2024-03-02T03:09:17;101411.03;;;6.28;69.95
73284;BME280;61519;60.050;18.582;2024-03-02T03:11:42;101409.28;;;6.38;69.88
73284;BME280;61519;60.050;18.582;2024-03-02T03:14:08;101429.41;;;6.47;70.00
73284;BME280;61519;60.050;18.582;2024-03-02T03:16:33;101421.81;;;6.35;69.92
73284;BME280;61519;60.050;18.582;2024-03-02T03:18:58;101391.13;;;6.16;70.06
73284;BME280;61519;60.050;18.582;2024-03-02T03:21:26;101407.31;;;6.31;70.00
73284;BME280;61519;60.050;18.582;2024-03-02T03:23:52;101390.75;;;6.20;69.99
73284;BME280;61519;60.050;18.582;2024-03-02T03:26:17;101396.53;;;6.24;69.97
73284;BME280;61519;60.050;18.582;2024-03-02T03:28:43;101378.88;;;6.16;69.81
73284;BME280;61519;60.050;18.582;2024-03-02T03:31:08;101413.66;;;6.38;69.89
73284;BME280;61519;60.050;18.582;2024-03-02T03:33:34;101419.78;;;6.48;69.79
73284;BME280;61519;60.050;18.582;2024-03-02T03:35:59;101369.50;;;6.14;69.62
73284;BME280;61519;60.050;18.582;2024-03-02T03:38:25;101428.31;;;6.50;69.63
73284;BME280;61519;60.050;18.582;2024-03-02T03:40:50;101405.97;;;6.36;69.58
73284;BME280;61519;60.050;18.582;2024-03-02T03:43:16;101385.78;;;6.27;69.70
73284;BME280;61519;60.050;18.582;2024-03-02T03:45:41;101434.97;;;6.54;69.74
73284;BME280;61519;60.050;18.582;2024-03-02T03:48:06;101402.94;;;6.41;69.51
73284;BME280;61519;60.050;18.582;2024-03-02T03:50:34;101395.44;;;6.27;69.67
73284;BME280;61519;60.050;18.582;2024-03-02T03:53:02;101408.56;;;6.36;69.66
73284;BME280;61519;60.050;18.582;2024-03-02T03:55:28;101383.59;;;6.22;69.68
73284;BME280;61519;60.050;18.582;2024-03-02T03:57:53;101417.28;;;6.37;69.73
73284;BME280;61519;60.050;18.582;2024-03-02T04:00:18;101397.63;;;6.21;69.59
73284;BME280;61519;60.050;18.582;2024-03-02T04:02:44;101424.16;;;6.38;69.70
73284;BME280;61519;60.050;18.582;2024-03-02T04:05:09;101373.34;;;6.10;69.76
73284;BME280;61519;60.050;18.582;2024-03-02T04:07:38;101460.63;;;6.60;69.58
73284;BME280;61519;60.050;18.582;2024-03-02T04:10:09;101450.25;;;6.49;69.60
73284;BME280;61519;60.050;18.582;2024-03-02T04:12:38;101401.19;;;6.11;69.56
73284;BME280;61519;60.050;18.582;2024-03-02T04:15:05;101425.66;;;6.31;69.60
73284;BME280;61519;60.050;18.582;2024-03-02T04:17:32;101450.25;;;6.49;69.67
73284;BME280;61519;60.050;18.582;2024-03-02T04:19:59;101448.19;;;6.43;69.54
73284;BME280;61519;60.050;18.582;2024-03-02T04:22:27;101459.50;;;6.53;69.75
73284;BME280;61519;60.050;18.582;2024-03-02T04:24:53;101471.66;;;6.54;69.75
73284;BME280;61519;60.050;18.582;2024-03-02T04:27:18;101456.03;;;6.43;69.65
73284;BME280;61519;60.050;18.582;2024-03-02T04:29:44;101411.25;;;6.15;69.66
73284;BME280;61519;60.050;18.582;2024-03-02T04:32:09;101443.56;;;6.35;69.53
73284;BME280;61519;60.050;18.582;2024-03-02T04:34:34;101404.63;;;6.11;69.73
73284;BME280;61519;60.050;18.582;2024-03-02T04:37:00;101473.56;;;6.52;69.66
73284;BME280;61519;60.050;18.582;2024-03-02T04:39:25;101428.38;;;6.19;69.50
73284;BME280;61519;60.050;18.582;2024-03-02T04:41:51;101420.78;;;6.16;69.77
73284;BME280;61519;60.050;18.582;2024-03-02T04:44:16;101416.63;;;6.14;69.52
73284;BME280;61519;60.050;18.582;2024-03-02T04:46:42;101414.84;;;6.14;69.67
73284;BME280;61519;60.050;18.582;2024-03-02T04:49:07;101382.53;;;5.95;69.51
73284;BME280;61519;60.050;18.582;2024-03-02T04:51:33;101402.53;;;6.05;69.51
73284;BME280;61519;60.050;18.582;2024-03-02T04:53:59;101393.97;;;6.03;69.44
73284;BME280;61519;60.050;18.582;2024-03-02T04:56:24;101458.34;;;6.36;69.48
73284;BME280;61519;60.050;18.582;2024-03-02T04:59:10;101443.41;;;6.27;69.34
73284;BME280;61519;60.050;18.582;2024-03-02T05:01:35;101444.25;;;6.28;69.60
73284;BME280;61519;60.050;18.582;2024-03-02T05:04:01;101474.63;;;6.40;69.39
73284;BME280;61519;60.050;18.582;2024-03-02T05:06:26;101432.91;;;6.17;69.44
73284;BME280;61519;60.050;18.582;2024-03-02T05:08:52;101431.50;;;6.13;69.50
73284;BME280;61519;60.050;18.582;2024-03-02T05:11:17;101471.06;;;6.41;69.21
73284;BME280;61519;60.050;18.582;2024-03-02T05:14:12;101474.63;;;6.40;69.33
73284;BME280;61519;60.050;18.582;2024-03-02T05:16:37;101488.97;;;6.45;69.22
73284;BME280;61519;60.050;18.582;2024-03-02T05:19:03;101488.75;;;6.48;69.08
73284;BME280;61519;60.050;18.582;2024-03-02T05:21:31;101496.19;;;6.53;69.10
73284;BME280;61519;60.050;18.582;2024-03-02T05:23:57;101470.75;;;6.34;69.03
73284;BME280;61519;60.050;18.582;2024-03-02T05:26:22;101499.50;;;6.55;69.22
73284;BME280;61519;60.050;18.582;2024-03-02T05:28:47;101497.72;;;6.55;69.06
73284;BME280;61519;60.050;18.582;2024-03-02T05:31:16;101484.72;;;6.44;68.96
73284;BME280;61519;60.050;18.582;2024-03-02T05:33:42;101493.13;;;6.48;69.00
73284;BME280;61519;60.050;18.582;2024-03-02T05:36:07;101477.78;;;6.34;69.04
73284;BME280;61519;60.050;18.582;2024-03-02T05:38:36;101463.09;;;6.21;69.06
73284;BME280;61519;60.050;18.582;2024-03-02T05:41:01;101477.00;;;6.43;68.86
73284;BME280;61519;60.050;18.582;2024-03-02T05:43:27;101462.44;;;6.29;68.95
73284;BME280;61519;60.050;18.582;2024-03-02T05:45:52;101456.41;;;6.29;68.85
73284;BME280;61519;60.050;18.582;2024-03-02T05:48:18;101443.69;;;6.24;68.81
73284;BME280;61519;60.050;18.582;2024-03-02T05:50:43;101494.94;;;6.57;68.83
73284;BME280;61519;60.050;18.582;2024-03-02T05:53:08;101454.47;;;6.31;68.71
73284;BME280;61519;60.050;18.582;2024-03-02T05:55:34;101473.69;;;6.41;68.89
73284;BME280;61519;60.050;18.582;2024-03-02T05:58:00;101504.75;;;6.55;68.69
73284;BME280;61519;60.050;18.582;2024-03-02T06:00:31;101486.91;;;6.49;68.79
73284;BME280;61519;60.050;18.582;2024-03-02T06:02:56;101507.63;;;6.52;68.85
73284;BME280;61519;60.050;18.582;2024-03-02T06:05:22;101509.03;;;6.56;68.78
73284;BME280;61519;60.050;18.582;2024-03-02T06:07:47;101479.56;;;6.33;68.51
73284;BME280;61519;60.050;18.582;2024-03-02T06:10:13;101493.13;;;6.48;68.64
73284;BME280;61519;60.050;18.582;2024-03-02T06:12:39;101508.34;;;6.54;68.63
73284;BME280;61519;60.050;18.582;2024-03-02T06:15:05;101497.53;;;6.47;68.66
73284;BME280;61519;60.050;18.582;2024-03-02T06:17:30;101503.09;;;6.54;68.58
73284;BME280;61519;60.050;18.582;2024-03-02T06:19:56;101508.06;;;6.57;68.64
73284;BME280;61519;60.050;18.582;2024-03-02T06:22:21;101471.88;;;6.41;68.56
73284;BME280;61519;60.050;18.582;2024-03-02T06:24:50;101501.41;;;6.53;68.57
73284;BME280;61519;60.050;18.582;2024-03-02T06:27:15;101493.38;;;6.45;68.48
73284;BME280;61519;60.050;18.582;2024-03-02T06:29:40;101476.41;;;6.39;68.19
73284;BME280;61519;60.050;18.582;2024-03-02T06:32:06;101501.16;;;6.56;68.44
73284;BME280;61519;60.050;18.582;2024-03-02T06:34:31;101454.59;;;6.29;68.28
73284;BME280;61519;60.050;18.582;2024-03-02T06:36:56;101503.13;;;6.63;68.29
73284;BME280;61519;60.050;18.582;2024-03-02T06:39:22;101494.16;;;6.56;68.19
73284;BME280;61519;60.050;18.582;2024-03-02T06:41:47;101527.03;;;6.70;68.27
73284;BME280;61519;60.050;18.582;2024-03-02T06:44:13;101531.25;;;6.61;68.32
73284;BME280;61519;60.050;18.582;2024-03-02T06:46:38;101536.53;;;6.71;68.20
73284;BME280;61519;60.050;18.582;2024-03-02T06:49:04;101520.22;;;6.58;68.35
73284;BME280;61519;60.050;18.582;2024-03-02T06:51:30;101551.88;;;6.75;68.25
73284;BME280;61519;60.050;18.582;2024-03-02T06:53:55;101557.81;;;6.77;68.27
73284;BME280;61519;60.050;18.582;2024-03-02T06:56:20;101540.38;;;6.67;68.18
73284;BME280;61519;60.050;18.582;2024-03-02T06:58:46;101533.75;;;6.63;68.15
73284;BME280;61519;60.050;18.582;2024-03-02T07:01:12;101533.50;;;6.66;68.10
73284;BME280;61519;60.050;18.582;2024-03-02T07:03:37;101536.25;;;6.64;68.16
73284;BME280;61519;60.050;18.582;2024-03-02T07:06:05;101537.50;;;6.70;67.90
73284;BME280;61519;60.050;18.582;2024-03-02T07:08:30;101483.59;;;6.47;68.00
73284;BME280;61519;60.050;18.582;2024-03-02T07:10:56;101538.63;;;6.77;67.84
73284;BME280;61519;60.050;18.582;2024-03-02T07:13:22;101566.13;;;6.92;68.08
73284;BME280;61519;60.050;18.582;2024-03-02T07:15:47;101560.63;;;6.95;67.93
73284;BME280;61519;60.050;18.582;2024-03-02T07:18:28;101564.06;;;6.95;68.02
73284;BME280;61519;60.050;18.582;2024-03-02T07:20:54;101548.44;;;6.94;68.13
73284;BME280;61519;60.050;18.582;2024-03-02T07:23:20;101574.16;;;7.09;67.84
73284;BME280;61519;60.050;18.582;2024-03-02T07:25:49;101542.25;;;6.95;67.83
73284;BME280;61519;60.050;18.582;2024-03-02T07:28:15;101562.88;;;7.09;67.62
73284;BME280;61519;60.050;18.582;2024-03-02T07:30:41;101567.28;;;7.18;67.72
73284;BME280;61519;60.050;18.582;2024-03-02T07:33:06;101542.97;;;7.06;67.81
73284;BME280;61519;60.050;18.582;2024-03-02T07:35:32;101555.69;;;7.11;67.55
73284;BME280;61519;60.050;18.582;2024-03-02T07:37:57;101532.47;;;7.06;67.45
73284;BME280;61519;60.050;18.582;2024-03-02T07:40:24;101567.59;;;7.34;67.56
73284;BME280;61519;60.050;18.582;2024-03-02T07:42:50;101558.75;;;7.35;67.38
73284;BME280;61519;60.050;18.582;2024-03-02T07:45:15;101530.47;;;7.29;67.25
73284;BME280;61519;60.050;18.582;2024-03-02T07:47:41;101500.75;;;7.19;67.14
73284;BME280;61519;60.050;18.582;2024-03-02T07:50:06;101539.97;;;7.49;66.97
73284;BME280;61519;60.050;18.582;2024-03-02T07:52:32;101564.56;;;7.67;66.80
73284;BME280;61519;60.050;18.582;2024-03-02T07:54:58;101532.66;;;7.62;66.85
73284;BME280;61519;60.050;18.582;2024-03-02T07:57:24;101553.34;;;7.84;66.86
73284;BME280;61519;60.050;18.582;2024-03-02T07:59:49;101564.53;;;7.96;66.57
73284;BME280;61519;60.050;18.582;2024-03-02T08:02:15;101548.91;;;7.94;66.45
73284;BME280;61519;60.050;18.582;2024-03-02T08:04:41;101548.53;;;7.89;66.36
73284;BME280;61519;60.050;18.582;2024-03-02T08:07:06;101589.41;;;8.21;66.39
73284;BME280;61519;60.050;18.582;2024-03-02T08:09:31;101551.81;;;8.11;66.11
73284;BME280;61519;60.050;18.582;2024-03-02T08:11:57;101553.47;;;8.12;66.01
73284;BME280;61519;60.050;18.582;2024-03-02T08:14:23;101570.84;;;8.32;65.96
73284;BME280;61519;60.050;18.582;2024-03-02T08:16:49;101565.88;;;8.38;66.15
73284;BME280;61519;60.050;18.582;2024-03-02T08:19:14;101582.56;;;8.56;65.95
73284;BME280;61519;60.050;18.582;2024-03-02T08:21:40;101598.09;;;8.77;65.65
73284;BME280;61519;60.050;18.582;2024-03-02T08:24:06;101581.38;;;8.78;65.48
73284;BME280;61519;60.050;18.582;2024-03-02T08:26:32;101577.56;;;8.90;65.32
73284;BME280;61519;60.050;18.582;2024-03-02T08:28:58;101546.59;;;8.84;65.05
73284;BME280;61519;60.050;18.582;2024-03-02T08:31:24;101594.94;;;9.28;64.58
73284;BME280;61519;60.050;18.582;2024-03-02T08:33:49;101563.88;;;9.14;64.64
73284;BME280;61519;60.050;18.582;2024-03-02T08:36:15;101583.19;;;9.22;64.64
73284;BME280;61519;60.050;18.582;2024-03-02T08:38:40;101538.78;;;8.92;64.62
73284;BME280;61519;60.050;18.582;2024-03-02T08:41:06;101573.84;;;9.10;64.35
73284;BME280;61519;60.050;18.582;2024-03-02T08:43:32;101602.97;;;9.26;64.50
73284;BME280;61519;60.050;18.582;2024-03-02T08:45:58;101553.00;;;8.99;64.61
73284;BME280;61519;60.050;18.582;2024-03-02T08:48:23;101584.88;;;9.23;64.51
73284;BME280;61519;60.050;18.582;2024-03-02T08:50:48;101580.88;;;9.19;64.20
73284;BME280;61519;60.050;18.582;2024-03-02T08:53:14;101539.47;;;8.94;64.10
73284;BME280;61519;60.050;18.582;2024-03-02T08:55:44;101583.19;;;9.22;63.67
73284;BME280;61519;60.050;18.582;2024-03-02T08:58:10;101551.63;;;8.95;63.79
73284;BME280;61519;60.050;18.582;2024-03-02T09:00:35;101595.09;;;9.26;63.59
73284;BME280;61519;60.050;18.582;2024-03-02T09:03:01;101569.66;;;9.17;63.42
73284;BME280;61519;60.050;18.582;2024-03-02T09:05:26;101545.94;;;9.00;63.36
73284;BME280;61519;60.050;18.582;2024-03-02T09:07:51;101587.88;;;9.28;63.56
73284;BME280;61519;60.050;18.582;2024-03-02T09:10:17;101551.22;;;9.00;63.52
73284;BME280;61519;60.050;18.582;2024-03-02T09:12:42;101547.06;;;8.97;63.33
73284;BME280;61519;60.050;18.582;2024-03-02T09:15:08;101606.63;;;9.43;63.03
73284;BME280;61519;60.050;18.582;2024-03-02T09:17:34;101533.63;;;9.00;62.99
73284;BME280;61519;60.050;18.582;2024-03-02T09:19:59;101541.22;;;9.03;62.99
73284;BME280;61519;60.050;18.582;2024-03-02T09:22:24;101611.91;;;9.43;62.92
73284;BME280;61519;60.050;18.582;2024-03-02T09:24:50;101588.84;;;9.27;62.60
73284;BME280;61519;60.050;18.582;2024-03-02T09:27:15;101608.09;;;9.45;62.94
73284;BME280;61519;60.050;18.582;2024-03-02T09:29:40;101605.31;;;9.29;63.19
73284;BME280;61519;60.050;18.582;2024-03-02T09:32:08;101622.84;;;9.38;62.85
73284;BME280;61519;60.050;18.582;2024-03-02T09:34:33;101602.88;;;9.18;62.95
73284;BME280;61519;60.050;18.582;2024-03-02T09:36:59;101610.09;;;9.16;62.87
73284;BME280;61519;60.050;18.582;2024-03-02T09:39:24;101587.09;;;8.91;62.82
73284;BME280;61519;60.050;18.582;2024-03-02T09:41:53;101607.88;;;8.94;63.09
73284;BME280;61519;60.050;18.582;2024-03-02T09:44:19;101617.41;;;8.95;63.12
73284;BME280;61519;60.050;18.582;2024-03-02T09:46:48;101559.16;;;8.53;63.06
73284;BME280;61519;60.050;18.582;2024-03-02T09:49:14;101608.34;;;8.80;63.22
73284;BME280;61519;60.050;18.582;2024-03-02T09:51:40;101615.56;;;8.78;63.14
73284;BME280;61519;60.050;18.582;2024-03-02T09:54:08;101573.03;;;8.46;63.08
73284;BME280;61519;60.050;18.582;2024-03-02T09:56:34;101577.16;;;8.58;63.39
73284;BME280;61519;60.050;18.582;2024-03-02T09:58:59;101539.09;;;8.25;63.04
73284;BME280;61519;60.050;18.582;2024-03-02T10:01:25;101608.13;;;8.64;63.26
73284;BME280;61519;60.050;18.582;2024-03-02T10:03:51;101579.25;;;8.54;63.27
73284;BME280;61519;60.050;18.582;2024-03-02T10:08:45;101596.81;;;8.54;63.20
73284;BME280;61519;60.050;18.582;2024-03-02T10:11:10;101630.94;;;8.73;63.20
73284;BME280;61519;60.050;18.582;2024-03-02T10:13:36;101617.78;;;8.73;63.21
73284;BME280;61519;60.050;18.582;2024-03-02T10:16:11;101624.13;;;8.80;63.12
73284;BME280;61519;60.050;18.582;2024-03-02T10:18:37;101611.72;;;8.72;63.00
73284;BME280;61519;60.050;18.582;2024-03-02T10:21:29;101617.88;;;8.81;62.87
73284;BME280;61519;60.050;18.582;2024-03-02T10:24:06;101588.16;;;8.71;63.06
73284;BME280;61519;60.050;18.582;2024-03-02T10:26:32;101616.09;;;8.81;62.83
73284;BME280;61519;60.050;18.582;2024-03-02T10:28:57;101614.41;;;8.80;62.77
73284;BME280;61519;60.050;18.582;2024-03-02T10:31:25;101598.25;;;8.75;62.76
73284;BME280;61519;60.050;18.582;2024-03-02T10:33:54;101574.66;;;8.56;62.72
73284;BME280;61519;60.050;18.582;2024-03-02T10:36:20;101591.28;;;8.57;62.86
73284;BME280;61519;60.050;18.582;2024-03-02T10:38:46;101577.72;;;8.52;62.67
73284;BME280;61519;60.050;18.582;2024-03-02T10:41:17;101582.44;;;8.48;62.72
73284;BME280;61519;60.050;18.582;2024-03-02T10:43:43;101598.72;;;8.61;62.73
73284;BME280;61519;60.050;18.582;2024-03-02T10:46:09;101600.97;;;8.56;62.70
73284;BME280;61519;60.050;18.582;2024-03-02T10:48:36;101530.94;;;8.09;62.75
73284;BME280;61519;60.050;18.582;2024-03-02T10:51:04;101614.81;;;8.58;62.49
73284;BME280;61519;60.050;18.582;2024-03-02T10:53:30;101562.81;;;8.24;62.73
73284;BME280;61519;60.050;18.582;2024-03-02T10:55:57;101626.72;;;8.53;62.62
73284;BME280;61519;60.050;18.582;2024-03-02T10:58:31;101599.09;;;8.30;62.65
73284;BME280;61519;60.050;18.582;2024-03-02T11:01:01;101601.16;;;8.36;62.83
73284;BME280;61519;60.050;18.582;2024-03-02T11:03:27;101565.59;;;8.22;62.55
73284;BME280;61519;60.050;18.582;2024-03-02T11:05:54;101597.81;;;8.53;62.60
73284;BME280;61519;60.050;18.582;2024-03-02T11:08:21;101603.81;;;8.63;62.51
73284;BME280;61519;60.050;18.582;2024-03-02T11:10:51;101587.66;;;8.58;62.53
73284;BME280;61519;60.050;18.582;2024-03-02T11:13:26;101556.44;;;8.45;62.26
73284;BME280;61519;60.050;18.582;2024-03-02T11:15:55;101607.94;;;8.75;62.38
73284;BME280;61519;60.050;18.582;2024-03-02T11:18:24;101597.88;;;8.61;62.43
73284;BME280;61519;60.050;18.582;2024-03-02T11:20:50;101598.34;;;8.56;62.35
73284;BME280;61519;60.050;18.582;2024-03-02T11:23:16;101612.84;;;8.60;62.36
73284;BME280;61519;60.050;18.582;2024-03-02T11:25:41;101593.00;;;8.39;62.34
73284;BME280;61519;60.050;18.582;2024-03-02T11:28:07;101616.78;;;8.47;62.49
73284;BME280;61519;60.050;18.582;2024-03-02T11:33:04;101604.47;;;8.38;62.79
73284;BME280;61519;60.050;18.582;2024-03-02T11:35:42;101615.66;;;8.40;62.57
73284;BME280;61519;60.050;18.582;2024-03-02T11:38:09;101586.47;;;8.24;62.60
73284;BME280;61519;60.050;18.582;2024-03-02T11:40:35;101611.41;;;8.39;62.38
73284;BME280;61519;60.050;18.582;2024-03-02T11:43:00;101603.78;;;8.36;62.37
73284;BME280;61519;60.050;18.582;2024-03-02T11:45:26;101604.47;;;8.38;62.81
73284;BME280;61519;60.050;18.582;2024-03-02T11:47:58;101606.69;;;8.42;62.54
73284;BME280;61519;60.050;18.582;2024-03-02T11:50:34;101567.53;;;8.20;62.33
73284;BME280;61519;60.050;18.582;2024-03-02T11:53:00;101592.56;;;8.34;62.65
73284;BME280;61519;60.050;18.582;2024-03-02T11:55:26;101608.47;;;8.42;62.39
73284;BME280;61519;60.050;18.582;2024-03-02T11:57:54;101604.47;;;8.38;62.39
73284;BME280;61519;60.050;18.582;2024-03-02T12:00:20;101584.16;;;8.30;62.44
73284;BME280;61519;60.050;18.582;2024-03-02T12:02:47;101616.47;;;8.50;62.27
73284;BME280;61519;60.050;18.582;2024-03-02T12:05:24;101591.19;;;8.30;62.35
73284;BME280;61519;60.050;18.582;2024-03-02T12:07:55;101590.41;;;8.29;62.41
73284;BME280;61519;60.050;18.582;2024-03-02T12:10:21;101605.44;;;8.37;62.27
73284;BME280;61519;60.050;18.582;2024-03-02T12:12:47;101616.34;;;8.42;62.36
73284;BME280;61519;60.050;18.582;2024-03-02T12:15:13;101571.19;;;8.10;62.37
73284;BME280;61519;60.050;18.582;2024-03-02T12:17:38;101592.28;;;8.18;62.15
73284;BME280;61519;60.050;18.582;2024-03-02T12:20:05;101574.75;;;8.09;62.06
73284;BME280;61519;60.050;18.582;2024-03-02T12:22:32;101606.00;;;8.21;62.41
73284;BME280;61519;60.050;18.582;2024-03-02T12:24:57;101593.56;;;8.14;62.32
73284;BME280;61519;60.050;18.582;2024-03-02T12:27:22;101628.41;;;8.35;62.23
73284;BME280;61519;60.050;18.582;2024-03-02T12:29:48;101614.47;;;8.25;62.38
73284;BME280;61519;60.050;18.582;2024-03-02T12:32:14;101620.41;;;8.27;62.37
73284;BME280;61519;60.050;18.582;2024-03-02T12:34:39;101615.16;;;8.27;62.27
73284;BME280;61519;60.050;18.582;2024-03-02T12:37:05;101597.53;;;8.18;62.01
73284;BME280;61519;60.050;18.582;2024-03-02T12:39:30;101619.16;;;8.31;62.45
73284;BME280;61519;60.050;18.582;2024-03-02T12:41:58;101601.31;;;8.25;62.33
73284;BME280;61519;60.050;18.582;2024-03-02T12:44:23;101583.47;;;8.09;62.52
73284;BME280;61519;60.050;18.582;2024-03-02T12:46:48;101552.94;;;7.98;62.25
73284;BME280;61519;60.050;18.582;2024-03-02T12:49:15;101610.13;;;8.43;62.11
73284;BME280;61519;60.050;18.582;2024-03-02T12:51:45;101576.13;;;8.22;62.33
73284;BME280;61519;60.050;18.582;2024-03-02T12:54:16;101584.31;;;8.29;62.26
73284;BME280;61519;60.050;18.582;2024-03-02T12:56:42;101616.19;;;8.43;62.13
73284;BME280;61519;60.050;18.582;2024-03-02T12:59:17;101601.59;;;8.31;62.20